Time;durP1;ratioP1;P1;durP2;ratioP2;P2;SDS_P1;SDS_P2;PMS_P1;PMS_P2;Temp;Humidity;BMP_temperature;BMP_pressure;BME280_temperature;BME280_humidity;BME280_pressure;Samples;Min_cycle;Max_cycle;Signal;HPM_P1;HPM_P2
2024/04/15 00:00:47;;;;;;;5.20;3.53;;;;;;;;;;11128218;26;20028;-63
2024/04/15 00:05:48;;;;;;;5.30;3.53;;;;;;;;;;11129121;26;20071;-64
2024/04/15 00:10:51;;;;;;;5.05;3.88;;;;;;;;;;11127726;26;20051;-63
2024/04/15 00:15:57;;;;;;;7.78;3.72;;;;;;;;;;11129414;26;20092;-63
2024/04/15 00:21:04;;;;;;;4.47;4.05;;;;;;;;;;11127415;26;20016;-63
2024/04/15 00:26:05;;;;;;;5.83;3.60;;;;;;;;;;11128461;26;20008;-64
2024/04/15 00:31:06;;;;;;;8.23;4.22;;;;;;;;;;11127640;26;20118;-64
2024/04/15 00:36:08;;;;;;;7.38;3.17;;;;;;;;;;11128976;26;20020;-64
2024/04/15 00:41:09;;;;;;;7.88;4.22;;;;;;;;;;11127639;26;20115;-64
2024/04/15 00:46:10;;;;;;;5.68;3.65;;;;;;;;;;11126557;26;20103;-63
2024/04/15 00:51:14;;;;;;;8.50;3.85;;;;;;;;;;11127917;26;20115;-64
2024/04/15 00:56:15;;;;;;;4.07;3.45;;;;;;;;;;11082005;26;20001;-63
2024/04/15 01:01:17;;;;;;;5.80;3.28;;;;;;;;;;11126633;26;20455;-63
2024/04/15 01:06:18;;;;;;;11.57;3.55;;;;;;;;;;11095765;26;20028;-63
2024/04/15 01:11:19;;;;;;;14.15;2.92;;;;;;;;;;11124848;26;20049;-63
2024/04/15 01:16:20;;;;;;;3.58;3.25;;;;;;;;;;11124991;26;20102;-63
2024/04/15 01:21:21;;;;;;;5.22;3.55;;;;;;;;;;11125452;26;20450;-63
2024/04/15 01:26:22;;;;;;;3.88;2.85;;;;;;;;;;11125775;26;20032;-64
2024/04/15 01:31:24;;;;;;;4.38;3.53;;;;;;;;;;11126504;26;20070;-64
2024/04/15 01:36:25;;;;;;;6.72;3.25;;;;;;;;;;11125591;26;20012;-64
2024/04/15 01:41:26;;;;;;;3.85;3.25;;;;;;;;;;11126554;26;20032;-64
2024/04/15 01:46:28;;;;;;;6.65;3.05;;;;;;;;;;11124804;26;20032;-65
2024/04/15 01:51:30;;;;;;;4.95;3.35;;;;;;;;;;11107042;26;19997;-65
2024/04/15 01:56:31;;;;;;;5.82;3.30;;;;;;;;;;11102361;26;20039;-65
2024/04/15 02:01:32;;;;;;;5.22;3.30;;;;;;;;;;11104158;26;20035;-65
2024/04/15 02:06:33;;;;;;;4.82;3.40;;;;;;;;;;11120824;26;20110;-65
2024/04/15 02:11:34;;;;;;;3.58;3.28;;;;;;;;;;11105112;26;20005;-65
2024/04/15 02:16:36;;;;;;;6.15;3.08;;;;;;;;;;11123994;26;20020;-64
2024/04/15 02:21:37;;;;;;;3.10;2.80;;;;;;;;;;11125183;26;20558;-64
2024/04/15 02:26:38;;;;;;;9.13;3.20;;;;;;;;;;11103990;26;20090;-64
2024/04/15 02:31:39;;;;;;;4.07;2.95;;;;;;;;;;11123499;26;20029;-64
2024/04/15 02:36:41;;;;;;;4.10;2.92;;;;;;;;;;11090762;26;20079;-64
2024/04/15 02:41:42;;;;;;;7.63;3.50;;;;;;;;;;11123385;26;20451;-64
2024/04/15 02:46:43;;;;;;;3.50;2.72;;;;;;;;;;11123648;26;20032;-64
2024/04/15 02:51:44;;;;;;;5.03;3.22;;;;;;;;;;11106570;26;20069;-53
2024/04/15 02:56:45;;;;;;;3.95;3.25;;;;;;;;;;11113594;26;19996;-53
2024/04/15 03:01:46;;;;;;;4.13;3.60;;;;;;;;;;11101293;26;20027;-53
2024/04/15 03:06:48;;;;;;;5.03;2.85;;;;;;;;;;11122471;26;20653;-62
2024/04/15 03:11:49;;;;;;;3.30;3.00;;;;;;;;;;11123090;26;20032;-53
2024/04/15 03:16:50;;;;;;;3.20;2.90;;;;;;;;;;11123394;26;20222;-62
2024/04/15 03:21:51;;;;;;;3.47;3.17;;;;;;;;;;11122170;26;20009;-53
2024/04/15 03:26:52;;;;;;;3.55;2.90;;;;;;;;;;11091192;26;20069;-54
2024/04/15 03:31:53;;;;;;;5.18;3.25;;;;;;;;;;11121144;26;20000;-54
2024/04/15 03:36:55;;;;;;;4.88;3.15;;;;;;;;;;11124170;26;20020;-56
2024/04/15 03:41:56;;;;;;;5.22;3.22;;;;;;;;;;11123504;26;19996;-54
2024/04/15 03:46:57;;;;;;;4.20;3.08;;;;;;;;;;11121010;26;20028;-52
2024/04/15 03:51:59;;;;;;;3.30;3.00;;;;;;;;;;11122081;26;20099;-54
2024/04/15 03:57:00;;;;;;;3.08;2.78;;;;;;;;;;11120630;26;20036;-52
2024/04/15 04:02:02;;;;;;;3.92;2.88;;;;;;;;;;11101172;26;20459;-54
2024/04/15 04:07:04;;;;;;;3.78;2.80;;;;;;;;;;11120736;26;20036;-53
2024/04/15 04:12:05;;;;;;;4.15;3.00;;;;;;;;;;11123015;26;20028;-53
2024/04/15 04:17:06;;;;;;;3.35;2.92;;;;;;;;;;11129267;26;20098;-51
2024/04/15 04:22:07;;;;;;;3.63;2.90;;;;;;;;;;11127938;26;20032;-54
2024/04/15 04:27:08;;;;;;;6.03;3.17;;;;;;;;;;11126415;26;20389;-53
2024/04/15 04:32:09;;;;;;;4.05;2.67;;;;;;;;;;11128896;26;20004;-54
2024/04/15 04:37:10;;;;;;;3.78;3.17;;;;;;;;;;11126181;26;20779;-54
2024/04/15 04:42:12;;;;;;;3.00;2.67;;;;;;;;;;11125322;26;20107;-53
2024/04/15 04:47:14;;;;;;;3.72;2.78;;;;;;;;;;11127514;26;20004;-53
2024/04/15 04:52:15;;;;;;;3.03;2.65;;;;;;;;;;11126815;26;20004;-53
2024/04/15 04:57:17;;;;;;;3.65;3.03;;;;;;;;;;11127291;26;20456;-53
2024/04/15 05:02:18;;;;;;;3.88;2.85;;;;;;;;;;11106288;26;20004;-53
2024/04/15 05:07:19;;;;;;;3.25;2.95;;;;;;;;;;11124666;26;20102;-54
2024/04/15 05:12:21;;;;;;;3.08;2.70;;;;;;;;;;11125585;26;20011;-55
2024/04/15 05:17:22;;;;;;;3.63;2.90;;;;;;;;;;11126870;26;20036;-54
2024/04/15 05:22:23;;;;;;;3.60;2.60;;;;;;;;;;11125908;26;20094;-55
2024/04/15 05:27:24;;;;;;;2.50;2.30;;;;;;;;;;11124379;26;20024;-55
2024/04/15 05:32:25;;;;;;;4.07;2.50;;;;;;;;;;11126048;26;20069;-55
2024/04/15 05:37:26;;;;;;;3.67;2.67;;;;;;;;;;11124914;26;20011;-53
2024/04/15 05:42:27;;;;;;;2.72;2.47;;;;;;;;;;11125056;26;20004;-53
2024/04/15 05:47:28;;;;;;;3.30;2.60;;;;;;;;;;11120839;26;20043;-62
2024/04/15 05:52:30;;;;;;;11.65;2.45;;;;;;;;;;11117082;26;20505;-57
2024/04/15 05:57:31;;;;;;;2.90;2.70;;;;;;;;;;11118571;26;20343;-57
2024/04/15 06:02:32;;;;;;;3.28;2.75;;;;;;;;;;11111665;26;20070;-58
2024/04/15 06:07:33;;;;;;;4.60;2.90;;;;;;;;;;11098927;26;20802;-61
2024/04/15 06:12:34;;;;;;;5.57;2.90;;;;;;;;;;11115496;26;20114;-59
2024/04/15 06:17:35;;;;;;;12.10;3.95;;;;;;;;;;11114529;26;20050;-58
2024/04/15 06:22:36;;;;;;;4.63;4.15;;;;;;;;;;11122826;26;20004;-56
2024/04/15 06:27:37;;;;;;;10.48;4.25;;;;;;;;;;11125372;26;20287;-63
2024/04/15 06:32:39;;;;;;;8.43;4.43;;;;;;;;;;11123463;26;20081;-56
2024/04/15 06:37:40;;;;;;;6.68;4.60;;;;;;;;;;11123262;26;20025;-58
2024/04/15 06:42:41;;;;;;;7.28;4.35;;;;;;;;;;11124659;26;20094;-55
2024/04/15 06:47:42;;;;;;;14.07;5.35;;;;;;;;;;11121753;26;20501;-53
2024/04/15 06:52:43;;;;;;;13.32;4.47;;;;;;;;;;11123113;26;20048;-55
2024/04/15 06:57:44;;;;;;;10.32;4.32;;;;;;;;;;11121172;26;20022;-53
2024/04/15 07:02:45;;;;;;;7.72;4.45;;;;;;;;;;11105461;26;20024;-54
2024/04/15 07:07:46;;;;;;;5.85;4.00;;;;;;;;;;11123337;26;20502;-55
2024/04/15 07:12:48;;;;;;;11.60;4.47;;;;;;;;;;11122367;26;20028;-53
2024/04/15 07:17:49;;;;;;;11.10;4.50;;;;;;;;;;11121944;26;20091;-54
2024/04/15 07:22:50;;;;;;;7.60;4.53;;;;;;;;;;11096994;26;20004;-53
2024/04/15 07:27:52;;;;;;;6.80;4.00;;;;;;;;;;11095557;26;20366;-54
2024/04/15 07:32:53;;;;;;;6.20;4.18;;;;;;;;;;11090996;26;20015;-53
2024/04/15 07:37:54;;;;;;;8.73;4.60;;;;;;;;;;11121462;26;20033;-53
2024/04/15 07:42:55;;;;;;;5.20;3.80;;;;;;;;;;11121705;26;20000;-53
2024/04/15 07:47:56;;;;;;;8.23;4.07;;;;;;;;;;11123073;26;19996;-54
2024/04/15 07:52:57;;;;;;;10.05;4.00;;;;;;;;;;11130076;26;20107;-52
2024/04/15 07:57:58;;;;;;;6.65;4.20;;;;;;;;;;11119384;26;20020;-53
2024/04/15 08:03:01;;;;;;;10.13;4.70;;;;;;;;;;11115438;26;20004;-53
2024/04/15 08:08:02;;;;;;;4.90;3.60;;;;;;;;;;11127504;26;20003;-53
2024/04/15 08:13:04;;;;;;;5.07;3.95;;;;;;;;;;11127252;26;20483;-53
2024/04/15 08:18:05;;;;;;;10.32;4.32;;;;;;;;;;11127483;26;20033;-53
2024/04/15 08:23:06;;;;;;;5.68;4.15;;;;;;;;;;11107297;26;20004;-57
2024/04/15 08:28:07;;;;;;;10.65;4.45;;;;;;;;;;11126329;26;20028;-52
2024/04/15 08:33:08;;;;;;;10.88;4.07;;;;;;;;;;11115344;26;20260;-53
2024/04/15 08:38:09;;;;;;;10.27;4.45;;;;;;;;;;11093876;26;20032;-53
2024/04/15 08:43:14;;;;;;;6.47;4.18;;;;;;;;;;11116102;26;20308;-52
2024/04/15 08:48:16;;;;;;;7.22;4.50;;;;;;;;;;11071356;26;20025;-52
2024/04/15 08:53:18;;;;;;;7.57;4.50;;;;;;;;;;11057854;26;20100;-53
2024/04/15 08:58:19;;;;;;;7.45;3.83;;;;;;;;;;11092368;26;20053;-53
2024/04/15 09:03:20;;;;;;;7.13;3.88;;;;;;;;;;11087871;26;20040;-52
2024/04/15 09:08:22;;;;;;;8.73;4.43;;;;;;;;;;11107688;26;20293;-53
2024/04/15 09:13:23;;;;;;;6.07;3.60;;;;;;;;;;11092539;26;20079;-55
2024/04/15 09:18:24;;;;;;;6.85;3.65;;;;;;;;;;11080002;26;20025;-52
2024/04/15 09:23:25;;;;;;;10.80;3.92;;;;;;;;;;11062153;26;20429;-51
2024/04/15 09:28:26;;;;;;;6.13;3.75;;;;;;;;;;11124047;26;20048;-51
2024/04/15 09:33:27;;;;;;;10.55;3.83;;;;;;;;;;11089966;26;20524;-52
2024/04/15 09:38:29;;;;;;;7.82;4.13;;;;;;;;;;11108974;26;20452;-52
2024/04/15 09:43:32;;;;;;;4.30;3.22;;;;;;;;;;11064266;26;20460;-51
2024/04/15 09:48:35;;;;;;;5.80;3.60;;;;;;;;;;11087918;26;20344;-51
2024/04/15 09:53:43;;;;;;;4.72;3.35;;;;;;;;;;11086338;26;20073;-52
2024/04/15 09:58:45;;;;;;;;;;;;;;;;;;11106741;26;20276;-53
2024/04/15 10:03:52;;;;;;;6.35;3.25;;;;;;;;;;11117013;26;19925;-52
2024/04/15 10:08:53;;;;;;;5.93;3.77;;;;;;;;;;11114089;26;20013;-53
2024/04/15 10:13:55;;;;;;;8.05;3.28;;;;;;;;;;11083098;26;20008;-53
2024/04/15 10:18:59;;;;;;;6.18;3.42;;;;;;;;;;11089388;26;20000;-55
2024/04/15 10:24:03;;;;;;;4.38;3.55;;;;;;;;;;11054940;26;20094;-53
2024/04/15 10:29:27;;;;;;;4.65;3.03;;;;;;;;;;11115482;26;20079;-53
2024/04/15 10:34:28;;;;;;;11.25;3.97;;;;;;;;;;11111253;26;20020;-49
2024/04/15 10:39:30;;;;;;;8.00;3.50;;;;;;;;;;11109186;26;20004;-53
2024/04/15 10:44:31;;;;;;;6.53;3.42;;;;;;;;;;11108803;26;20000;-54
2024/04/15 10:49:32;;;;;;;4.97;3.47;;;;;;;;;;11115147;26;20041;-51
2024/04/15 10:54:33;;;;;;;4.28;2.97;;;;;;;;;;11113000;26;20008;-52
2024/04/15 10:59:34;;;;;;;8.30;3.55;;;;;;;;;;11099068;26;20044;-50
2024/04/15 11:04:35;;;;;;;5.95;3.13;;;;;;;;;;11108487;26;20000;-53
2024/04/15 11:09:36;;;;;;;4.93;3.63;;;;;;;;;;11123861;26;20044;-52
2024/04/15 11:14:38;;;;;;;5.80;2.92;;;;;;;;;;11104027;26;20387;-53
2024/04/15 11:19:39;;;;;;;4.18;3.35;;;;;;;;;;11110888;26;20076;-51
2024/04/15 11:24:40;;;;;;;7.57;3.42;;;;;;;;;;11103051;26;20001;-53
2024/04/15 11:29:42;;;;;;;5.60;3.05;;;;;;;;;;11126282;26;20110;-51
2024/04/15 11:34:43;;;;;;;4.30;3.13;;;;;;;;;;11118751;26;20001;-52
2024/04/15 11:39:46;;;;;;;4.47;3.25;;;;;;;;;;11105433;26;20072;-52
2024/04/15 11:44:47;;;;;;;4.32;2.90;;;;;;;;;;11116534;26;20016;-52
2024/04/15 11:49:48;;;;;;;3.47;3.17;;;;;;;;;;11109551;26;20099;-53
2024/04/15 11:54:49;;;;;;;10.57;3.55;;;;;;;;;;11113743;26;20001;-55
2024/04/15 11:59:52;;;;;;;4.05;3.30;;;;;;;;;;11118571;26;20238;-53
2024/04/15 12:04:54;;;;;;;4.72;3.15;;;;;;;;;;11120360;26;20283;-53
2024/04/15 12:09:56;;;;;;;4.03;3.20;;;;;;;;;;11130119;26;20000;-53
2024/04/15 12:14:57;;;;;;;5.40;3.22;;;;;;;;;;11099224;26;20114;-57
2024/04/15 12:19:59;;;;;;;4.50;3.50;;;;;;;;;;11126913;26;20233;-51
2024/04/15 12:25:00;;;;;;;6.20;3.40;;;;;;;;;;11086469;26;20322;-53
2024/04/15 12:30:02;;;;;;;5.43;3.63;;;;;;;;;;11100196;26;20037;-52
2024/04/15 12:35:03;;;;;;;7.25;3.45;;;;;;;;;;11090506;26;20071;-52
2024/04/15 12:40:07;;;;;;;7.40;3.53;;;;;;;;;;11097735;26;20012;-53
2024/04/15 12:45:08;;;;;;;7.38;3.38;;;;;;;;;;11099283;26;20000;-53
2024/04/15 12:50:09;;;;;;;4.53;3.22;;;;;;;;;;11097153;26;20016;-52
2024/04/15 12:55:10;;;;;;;6.60;3.20;;;;;;;;;;11123424;26;20020;-53
2024/04/15 13:00:12;;;;;;;4.35;3.30;;;;;;;;;;11106052;26;20028;-51
2024/04/15 13:05:13;;;;;;;4.28;3.40;;;;;;;;;;11123587;26;20007;-53
2024/04/15 13:10:14;;;;;;;9.13;3.40;;;;;;;;;;11098925;26;20016;-52
2024/04/15 13:15:15;;;;;;;7.95;3.55;;;;;;;;;;11100425;26;20013;-52
2024/04/15 13:35:28;;;;;;;5.57;3.63;;;;;;;;;;11158373;25;21249;-58
2024/04/15 13:40:29;;;;;;;7.38;4.07;;;;;;;;;;11152943;26;20003;-58
2024/04/15 13:45:31;;;;;;;6.47;3.35;;;;;;;;;;11160900;26;20000;-59
2024/04/15 13:50:32;;;;;;;6.05;3.30;;;;;;;;;;11129989;26;20007;-59
2024/04/15 13:55:35;;;;;;;7.63;3.88;;;;;;;;;;11158066;26;20008;-58
2024/04/15 14:00:36;;;;;;;5.07;3.42;;;;;;;;;;11141814;26;20431;-59
2024/04/15 14:05:37;;;;;;;7.88;3.53;;;;;;;;;;11159195;26;20008;-59
2024/04/15 14:10:38;;;;;;;6.88;3.35;;;;;;;;;;11159732;26;20040;-59
2024/04/15 14:15:39;;;;;;;5.18;3.20;;;;;;;;;;11160303;26;20083;-59
2024/04/15 14:20:40;;;;;;;5.05;3.55;;;;;;;;;;11159788;26;20029;-59
2024/04/15 14:25:41;;;;;;;5.15;3.17;;;;;;;;;;11159843;26;20012;-58
2024/04/15 14:30:43;;;;;;;5.68;3.10;;;;;;;;;;11153329;26;20478;-58
2024/04/15 14:35:44;;;;;;;5.43;3.10;;;;;;;;;;11099523;26;20064;-59
2024/04/15 14:40:46;;;;;;;6.68;3.03;;;;;;;;;;11128810;26;20077;-58
2024/04/15 14:45:48;;;;;;;5.68;3.15;;;;;;;;;;11127682;26;20011;-58
2024/04/15 14:50:50;;;;;;;4.05;2.83;;;;;;;;;;11126280;26;20004;-58
2024/04/15 14:55:54;;;;;;;7.03;3.28;;;;;;;;;;11126519;26;20426;-58
2024/04/15 15:00:55;;;;;;;3.78;2.88;;;;;;;;;;11128677;26;20036;-59
2024/04/15 15:05:56;;;;;;;4.57;3.00;;;;;;;;;;11127878;26;20016;-58
2024/04/15 15:11:00;;;;;;;5.85;2.88;;;;;;;;;;11127463;26;20406;-58
2024/04/15 15:16:01;;;;;;;6.93;2.83;;;;;;;;;;11126923;26;20007;-58
2024/04/15 15:21:02;;;;;;;4.03;2.78;;;;;;;;;;11127836;26;20028;-58
2024/04/15 15:26:03;;;;;;;4.95;2.97;;;;;;;;;;11125579;26;20040;-58
2024/04/15 15:31:04;;;;;;;3.70;2.83;;;;;;;;;;11117829;26;20033;-59
2024/04/15 15:36:07;;;;;;;9.10;2.60;;;;;;;;;;11126650;26;20008;-59
2024/04/15 15:41:08;;;;;;;4.70;2.95;;;;;;;;;;11124165;26;20000;-58
2024/04/15 15:46:10;;;;;;;7.72;3.05;;;;;;;;;;11124517;26;20024;-58
2024/04/15 15:51:11;;;;;;;3.45;2.80;;;;;;;;;;11096358;26;20012;-59
2024/04/15 15:56:12;;;;;;;4.75;3.05;;;;;;;;;;11125751;26;20036;-59
2024/04/15 16:01:13;;;;;;;7.72;3.00;;;;;;;;;;11126215;26;20458;-59
2024/04/15 16:06:15;;;;;;;6.47;3.10;;;;;;;;;;11125213;26;20024;-59
2024/04/15 16:11:16;;;;;;;4.75;2.85;;;;;;;;;;11120202;26;20543;-59
2024/04/15 16:16:18;;;;;;;5.50;2.78;;;;;;;;;;11125808;26;20008;-58
2024/04/15 16:21:19;;;;;;;5.05;3.00;;;;;;;;;;11088330;26;20019;-58
2024/04/15 16:26:20;;;;;;;4.88;3.10;;;;;;;;;;11124051;26;20015;-59
2024/04/15 16:31:21;;;;;;;4.00;2.63;;;;;;;;;;11106005;26;20000;-58
2024/04/15 16:36:23;;;;;;;4.53;2.63;;;;;;;;;;11123000;26;20001;-59
2024/04/15 16:41:25;;;;;;;5.15;2.60;;;;;;;;;;11123085;26;20104;-58
2024/04/15 16:46:27;;;;;;;3.33;2.50;;;;;;;;;;11121840;26;20012;-59
2024/04/15 16:51:28;;;;;;;4.53;2.55;;;;;;;;;;11122948;26;20000;-58
2024/04/15 16:56:29;;;;;;;4.85;3.15;;;;;;;;;;11120791;26;20095;-59
2024/04/15 17:01:30;;;;;;;4.25;2.55;;;;;;;;;;11074526;26;20019;-58
2024/04/15 17:06:31;;;;;;;4.78;2.65;;;;;;;;;;11120978;26;20028;-59
2024/04/15 17:11:33;;;;;;;5.63;2.60;;;;;;;;;;11065963;26;20903;-61
2024/04/15 17:16:34;;;;;;;3.60;2.67;;;;;;;;;;11121885;26;20256;-62
2024/04/15 17:21:35;;;;;;;4.05;2.78;;;;;;;;;;11118144;26;20032;-59
2024/04/15 17:26:37;;;;;;;13.18;2.75;;;;;;;;;;11117041;26;19997;-59
2024/04/15 17:31:38;;;;;;;2.67;2.20;;;;;;;;;;11115738;26;20408;-59
2024/04/15 17:36:40;;;;;;;5.18;2.65;;;;;;;;;;11116487;26;20342;-59
2024/04/15 17:41:41;;;;;;;3.83;2.78;;;;;;;;;;11110664;26;20000;-59
2024/04/15 17:46:43;;;;;;;4.47;3.15;;;;;;;;;;11118139;26;20036;-58
2024/04/15 17:51:44;;;;;;;2.92;2.30;;;;;;;;;;11116818;26;20119;-59
2024/04/15 17:56:45;;;;;;;5.68;3.00;;;;;;;;;;11121745;26;20008;-59
2024/04/15 18:01:46;;;;;;;5.10;2.70;;;;;;;;;;11118826;26;20023;-58
2024/04/15 18:06:47;;;;;;;3.15;2.67;;;;;;;;;;11120959;26;20073;-58
2024/04/15 18:11:48;;;;;;;6.60;3.10;;;;;;;;;;11098073;26;20008;-58
2024/04/15 18:16:49;;;;;;;4.50;2.83;;;;;;;;;;11116507;26;20455;-59
2024/04/15 18:21:52;;;;;;;5.72;2.75;;;;;;;;;;11107327;26;20081;-58
2024/04/15 18:26:53;;;;;;;4.90;2.60;;;;;;;;;;11112656;26;20443;-58
2024/04/15 18:31:54;;;;;;;11.85;3.08;;;;;;;;;;11123003;26;20160;-58
2024/04/15 18:36:55;;;;;;;5.00;3.10;;;;;;;;;;11114431;26;20031;-59
2024/04/15 18:41:56;;;;;;;6.00;3.72;;;;;;;;;;11119003;26;20002;-58
2024/04/15 18:46:57;;;;;;;4.93;3.58;;;;;;;;;;11111489;26;20032;-58
2024/04/15 18:51:59;;;;;;;5.95;3.22;;;;;;;;;;11094454;26;20088;-58
2024/04/15 18:57:00;;;;;;;6.75;4.20;;;;;;;;;;11103479;26;20484;-58
2024/04/15 19:02:02;;;;;;;4.88;3.40;;;;;;;;;;11106294;26;20000;-59
2024/04/15 19:07:03;;;;;;;8.77;4.18;;;;;;;;;;11108598;26;20550;-58
2024/04/15 19:12:04;;;;;;;7.35;3.80;;;;;;;;;;11107693;26;20015;-59
2024/04/15 19:17:05;;;;;;;8.68;3.63;;;;;;;;;;11107577;26;20321;-59
2024/04/15 19:22:07;;;;;;;10.20;3.58;;;;;;;;;;11113179;26;19996;-59
2024/04/15 19:27:08;;;;;;;6.82;3.65;;;;;;;;;;11106850;26;20455;-59
2024/04/15 19:32:09;;;;;;;12.45;3.25;;;;;;;;;;11109986;26;20012;-59
2024/04/15 19:37:11;;;;;;;12.85;3.63;;;;;;;;;;11100318;26;20340;-59
2024/04/15 19:42:12;;;;;;;8.13;3.00;;;;;;;;;;11102901;26;20065;-58
2024/04/15 19:47:13;;;;;;;8.55;4.10;;;;;;;;;;11123358;26;20025;-58
2024/04/15 19:52:15;;;;;;;12.30;4.05;;;;;;;;;;11124516;26;20549;-59
2024/04/15 19:57:16;;;;;;;9.60;3.03;;;;;;;;;;11122462;26;20032;-58
2024/04/15 20:02:17;;;;;;;8.55;4.00;;;;;;;;;;11093221;26;20355;-58
2024/04/15 20:07:18;;;;;;;11.27;3.75;;;;;;;;;;11125240;26;20012;-58
2024/04/15 20:12:20;;;;;;;9.10;3.90;;;;;;;;;;11123909;26;20102;-58
2024/04/15 20:17:28;;;;;;;9.35;4.05;;;;;;;;;;11121082;26;20006;-59
2024/04/15 20:22:29;;;;;;;8.50;3.47;;;;;;;;;;11124703;26;20012;-59
2024/04/15 20:27:30;;;;;;;7.80;3.65;;;;;;;;;;11124353;26;20012;-58
2024/04/15 20:32:32;;;;;;;18.17;3.72;;;;;;;;;;11113696;26;20008;-58
2024/04/15 20:37:33;;;;;;;8.35;3.78;;;;;;;;;;11122662;26;20015;-58
2024/04/15 20:42:34;;;;;;;10.85;4.10;;;;;;;;;;11124375;26;20019;-58
2024/04/15 20:47:35;;;;;;;11.95;4.32;;;;;;;;;;11122247;26;20000;-58
2024/04/15 20:52:36;;;;;;;9.40;3.92;;;;;;;;;;11123980;26;20008;-59
2024/04/15 20:57:37;;;;;;;6.20;3.72;;;;;;;;;;11122649;26;20090;-58
2024/04/15 21:02:39;;;;;;;6.63;4.35;;;;;;;;;;11124251;26;20451;-58
2024/04/15 21:07:40;;;;;;;7.35;4.05;;;;;;;;;;11123535;26;20004;-60
2024/04/15 21:12:41;;;;;;;7.15;3.70;;;;;;;;;;11124359;26;20019;-60
2024/04/15 21:17:43;;;;;;;6.10;3.50;;;;;;;;;;11122963;26;20001;-58
2024/04/15 21:22:44;;;;;;;8.68;4.22;;;;;;;;;;11108330;26;20004;-59
2024/04/15 21:27:46;;;;;;;8.50;4.38;;;;;;;;;;11106194;26;20012;-60
2024/04/15 21:32:47;;;;;;;9.35;4.82;;;;;;;;;;11097351;26;20001;-59
2024/04/15 21:37:48;;;;;;;6.70;4.45;;;;;;;;;;11097134;26;20004;-58
2024/04/15 21:42:49;;;;;;;8.50;4.18;;;;;;;;;;11123273;26;20047;-58
2024/04/15 21:47:51;;;;;;;10.05;4.80;;;;;;;;;;11129912;26;20025;-56
2024/04/15 21:52:52;;;;;;;6.72;4.53;;;;;;;;;;11117718;26;20409;-58
2024/04/15 21:57:57;;;;;;;9.25;4.32;;;;;;;;;;11105563;26;20096;-58
2024/04/15 22:02:58;;;;;;;8.52;4.05;;;;;;;;;;11107470;26;20012;-58
2024/04/15 22:07:59;;;;;;;11.15;3.60;;;;;;;;;;11100383;26;20019;-59
2024/04/15 22:13:01;;;;;;;6.13;3.75;;;;;;;;;;11112431;26;20284;-58
2024/04/15 22:18:02;;;;;;;10.68;4.45;;;;;;;;;;11128304;26;20011;-60
2024/04/15 22:23:05;;;;;;;5.68;3.70;;;;;;;;;;11111659;26;20007;-57
2024/04/15 22:28:06;;;;;;;7.57;4.15;;;;;;;;;;11125309;26;20442;-58
2024/04/15 22:33:08;;;;;;;6.80;3.97;;;;;;;;;;11118123;26;20010;-57
2024/04/15 22:38:12;;;;;;;9.50;3.72;;;;;;;;;;11127850;26;20000;-58
2024/04/15 22:43:13;;;;;;;10.90;4.10;;;;;;;;;;11127000;26;20098;-59
2024/04/15 22:48:14;;;;;;;6.78;3.47;;;;;;;;;;11123855;26;20032;-58
2024/04/15 22:53:15;;;;;;;10.98;3.85;;;;;;;;;;11126639;26;20102;-58
2024/04/15 22:58:16;;;;;;;4.70;3.60;;;;;;;;;;11127504;26;20088;-57
2024/04/15 23:03:17;;;;;;;8.60;3.13;;;;;;;;;;11127706;26;20036;-59
2024/04/15 23:08:18;;;;;;;9.23;3.55;;;;;;;;;;11127560;26;20094;-59
2024/04/15 23:13:20;;;;;;;5.60;3.30;;;;;;;;;;11126035;26;20000;-59
2024/04/15 23:18:24;;;;;;;9.65;3.40;;;;;;;;;;11127751;26;20040;-58
2024/04/15 23:23:25;;;;;;;7.15;3.40;;;;;;;;;;11128227;26;20041;-58
2024/04/15 23:28:26;;;;;;;4.72;3.20;;;;;;;;;;11126749;26;20027;-58
2024/04/15 23:33:28;;;;;;;4.55;3.58;;;;;;;;;;11116246;26;20008;-58
2024/04/15 23:38:29;;;;;;;6.97;3.33;;;;;;;;;;11127159;26;20008;-59
2024/04/15 23:43:30;;;;;;;4.35;3.05;;;;;;;;;;11123716;26;20127;-59
2024/04/15 23:48:31;;;;;;;5.18;3.10;;;;;;;;;;11125653;26;20015;-59
2024/04/15 23:53:32;;;;;;;3.60;3.05;;;;;;;;;;11125826;26;20043;-59
2024/04/15 23:58:35;;;;;;;8.45;3.10;;;;;;;;;;11126559;26;20073;-59
